sensor_id;sensor_type;location;lat;lon;timestamp;temperature;humidity
73875;HTU21D;62209;47.568;7.558;2023-05-20T00:02:04;13.17;93.86
73875;HTU21D;62209;47.568;7.558;2023-05-20T00:17:10;12.97;93.34
73875;HTU21D;62209;47.568;7.558;2023-05-20T00:32:15;13.03;93.62
73875;HTU21D;62209;47.568;7.558;2023-05-20T00:47:22;12.99;93.82
73875;HTU21D;62209;47.568;7.558;2023-05-20T01:02:31;12.82;94.45
73875;HTU21D;62209;47.568;7.558;2023-05-20T01:17:38;12.79;94.75
73875;HTU21D;62209;47.568;7.558;2023-05-20T01:32:47;12.79;95.14
73875;HTU21D;62209;47.568;7.558;2023-05-20T01:47:57;12.67;95.06
73875;HTU21D;62209;47.568;7.558;2023-05-20T02:03:04;12.55;95.10
73875;HTU21D;62209;47.568;7.558;2023-05-20T02:18:10;12.60;94.91
73875;HTU21D;62209;47.568;7.558;2023-05-20T02:33:16;12.49;94.85
73875;HTU21D;62209;47.568;7.558;2023-05-20T02:48:22;12.60;95.11
73875;HTU21D;62209;47.568;7.558;2023-05-20T03:03:27;12.57;94.84
73875;HTU21D;62209;47.568;7.558;2023-05-20T03:18:33;12.56;94.76
73875;HTU21D;62209;47.568;7.558;2023-05-20T03:33:39;12.47;94.89
73875;HTU21D;62209;47.568;7.558;2023-05-20T03:48:45;12.43;94.92
73875;HTU21D;62209;47.568;7.558;2023-05-20T04:03:50;12.53;95.05
73875;HTU21D;62209;47.568;7.558;2023-05-20T04:18:56;12.50;95.61
73875;HTU21D;62209;47.568;7.558;2023-05-20T04:34:03;12.65;95.49
73875;HTU21D;62209;47.568;7.558;2023-05-20T04:49:09;12.81;95.49
73875;HTU21D;62209;47.568;7.558;2023-05-20T05:04:14;12.82;95.52
73875;HTU21D;62209;47.568;7.558;2023-05-20T05:19:20;12.80;95.50
73875;HTU21D;62209;47.568;7.558;2023-05-20T05:34:26;12.72;95.89
73875;HTU21D;62209;47.568;7.558;2023-05-20T05:49:32;12.81;95.60
73875;HTU21D;62209;47.568;7.558;2023-05-20T06:04:38;12.90;95.55
73875;HTU21D;62209;47.568;7.558;2023-05-20T06:19:44;13.08;95.54
73875;HTU21D;62209;47.568;7.558;2023-05-20T06:34:49;13.48;95.24
73875;HTU21D;62209;47.568;7.558;2023-05-20T06:49:55;13.46;94.58
73875;HTU21D;62209;47.568;7.558;2023-05-20T07:05:01;14.17;93.57
73875;HTU21D;62209;47.568;7.558;2023-05-20T07:20:07;14.33;91.89
73875;HTU21D;62209;47.568;7.558;2023-05-20T07:35:13;14.26;91.79
73875;HTU21D;62209;47.568;7.558;2023-05-20T07:50:19;14.65;92.19
73875;HTU21D;62209;47.568;7.558;2023-05-20T08:05:24;14.77;92.29
73875;HTU21D;62209;47.568;7.558;2023-05-20T08:20:30;14.73;92.18
73875;HTU21D;62209;47.568;7.558;2023-05-20T08:35:36;14.99;91.93
73875;HTU21D;62209;47.568;7.558;2023-05-20T08:50:42;15.56;90.79
73875;HTU21D;62209;47.568;7.558;2023-05-20T09:05:49;16.08;89.46
73875;HTU21D;62209;47.568;7.558;2023-05-20T09:20:54;16.31;89.05
73875;HTU21D;62209;47.568;7.558;2023-05-20T09:36:02;16.81;87.31
73875;HTU21D;62209;47.568;7.558;2023-05-20T09:51:09;18.35;83.07
73875;HTU21D;62209;47.568;7.558;2023-05-20T10:06:24;19.09;81.97
73875;HTU21D;62209;47.568;7.558;2023-05-20T10:21:57;19.00;81.37
73875;HTU21D;62209;47.568;7.558;2023-05-20T10:37:04;19.06;81.62
73875;HTU21D;62209;47.568;7.558;2023-05-20T10:52:09;19.75;81.03
73875;HTU21D;62209;47.568;7.558;2023-05-20T11:07:24;21.10;75.98
73875;HTU21D;62209;47.568;7.558;2023-05-20T11:22:31;21.92;73.75
73875;HTU21D;62209;47.568;7.558;2023-05-20T11:37:37;20.16;76.96
73875;HTU21D;62209;47.568;7.558;2023-05-20T11:52:43;21.91;76.61
73875;HTU21D;62209;47.568;7.558;2023-05-20T12:07:49;21.46;78.66
73875;HTU21D;62209;47.568;7.558;2023-05-20T12:22:56;21.53;77.89
73875;HTU21D;62209;47.568;7.558;2023-05-20T12:38:02;21.69;79.69
73875;HTU21D;62209;47.568;7.558;2023-05-20T12:53:07;21.00;78.88
73875;HTU21D;62209;47.568;7.558;2023-05-20T13:08:13;21.15;78.69
73875;HTU21D;62209;47.568;7.558;2023-05-20T13:23:21;21.23;76.98
73875;HTU21D;62209;47.568;7.558;2023-05-20T13:38:27;21.20;79.00
73875;HTU21D;62209;47.568;7.558;2023-05-20T13:53:32;21.21;78.06
73875;HTU21D;62209;47.568;7.558;2023-05-20T14:08:38;20.79;79.49
73875;HTU21D;62209;47.568;7.558;2023-05-20T14:23:44;20.55;78.71
73875;HTU21D;62209;47.568;7.558;2023-05-20T14:38:50;20.41;79.49
73875;HTU21D;62209;47.568;7.558;2023-05-20T14:53:55;20.31;80.39
73875;HTU21D;62209;47.568;7.558;2023-05-20T15:09:01;20.79;80.21
73875;HTU21D;62209;47.568;7.558;2023-05-20T15:24:08;20.95;79.18
73875;HTU21D;62209;47.568;7.558;2023-05-20T15:39:14;21.08;79.72
73875;HTU21D;62209;47.568;7.558;2023-05-20T15:54:20;20.72;81.06
73875;HTU21D;62209;47.568;7.558;2023-05-20T16:09:25;20.41;82.29
73875;HTU21D;62209;47.568;7.558;2023-05-20T16:24:31;20.14;83.05
73875;HTU21D;62209;47.568;7.558;2023-05-20T16:39:37;19.87;84.55
73875;HTU21D;62209;47.568;7.558;2023-05-20T16:54:43;19.58;85.90
73875;HTU21D;62209;47.568;7.558;2023-05-20T17:09:49;19.30;87.32
73875;HTU21D;62209;47.568;7.558;2023-05-20T17:24:55;19.30;88.38
73875;HTU21D;62209;47.568;7.558;2023-05-20T17:40:01;18.96;87.66
73875;HTU21D;62209;47.568;7.558;2023-05-20T17:55:08;18.85;88.30
73875;HTU21D;62209;47.568;7.558;2023-05-20T18:10:15;18.71;88.89
73875;HTU21D;62209;47.568;7.558;2023-05-20T18:25:21;18.51;92.37
73875;HTU21D;62209;47.568;7.558;2023-05-20T18:40:27;18.24;91.38
73875;HTU21D;62209;47.568;7.558;2023-05-20T18:55:33;17.82;95.17
73875;HTU21D;62209;47.568;7.558;2023-05-20T19:10:39;17.55;95.20
73875;HTU21D;62209;47.568;7.558;2023-05-20T19:25:45;17.22;96.13
73875;HTU21D;62209;47.568;7.558;2023-05-20T19:40:51;17.01;97.06
73875;HTU21D;62209;47.568;7.558;2023-05-20T19:55:57;16.60;97.68
73875;HTU21D;62209;47.568;7.558;2023-05-20T20:11:03;16.30;98.56
73875;HTU21D;62209;47.568;7.558;2023-05-20T20:26:09;16.00;100.70
73875;HTU21D;62209;47.568;7.558;2023-05-20T20:41:16;15.81;99.83
73875;HTU21D;62209;47.568;7.558;2023-05-20T20:56:23;15.59;100.01
73875;HTU21D;62209;47.568;7.558;2023-05-20T21:11:29;15.21;100.51
73875;HTU21D;62209;47.568;7.558;2023-05-20T21:26:35;15.25;100.30
73875;HTU21D;62209;47.568;7.558;2023-05-20T21:41:41;15.03;100.97
73875;HTU21D;62209;47.568;7.558;2023-05-20T21:56:47;15.00;99.88
73875;HTU21D;62209;47.568;7.558;2023-05-20T22:11:54;14.93;100.45
73875;HTU21D;62209;47.568;7.558;2023-05-20T22:26:59;14.66;101.25
73875;HTU21D;62209;47.568;7.558;2023-05-20T22:42:06;14.44;101.36
73875;HTU21D;62209;47.568;7.558;2023-05-20T22:57:12;14.35;101.92
73875;HTU21D;62209;47.568;7.558;2023-05-20T23:12:19;14.33;102.67
73875;HTU21D;62209;47.568;7.558;2023-05-20T23:27:25;14.33;103.27
73875;HTU21D;62209;47.568;7.558;2023-05-20T23:42:30;14.33;103.10
73875;HTU21D;62209;47.568;7.558;2023-05-20T23:57:36;14.32;102.67
